x

Sand Key, Fl (sanf1) Weather Station

9:50am - Thu 25th Aug 2016 All times are CDT. -4 hours from GMT.

  • Wind
    11mph, 13mph gusts
  • Air Temp 85°f
  • Sea Pressure 1015.4mb
  • Sand Key, Fl
  • Sand Key, Fl

More Historic Weather Station data

Upgrade to MSW Pro to gain access to the past 30 days of data for over 8000 Wavebouys and Weather Stations around the globe.

Join Pro

Comparision Forecast

View Surf forecast
   
Thu 08/25 9:50am 11 13 mph 1015.4mb 85f
8:50am 9 16 mph 1015mb 85f
7:50am 14 15 mph 1014.8mb 85f
6:50am 11 15 mph 1014.1mb 85f
5:50am 2 3 mph 1014.6mb 82f
4:50am  -  mph 1014.9mb 80f
3:50am 15 18 mph 1014.9mb 83f
2:50am 16 18 mph 1015.2mb 84f
1:50am 18 21 mph 1015.5mb 83f
12:50am 18 21 mph 1016mb 84f
Wed 08/24 11:50pm 21 22 mph 1016.3mb 83f
10:50pm 18 22 mph 1016.3mb 84f
9:50pm 18 22 mph 1016.1mb 84f
8:50pm 17 20 mph 1016.3mb 85f
7:50pm 21 23 mph 1015.8mb 84f
6:50pm 17 21 mph 1015.8mb 86f
5:50pm 13 16 mph 1015.5mb 86f
4:50pm 10 13 mph 1016.3mb 86f
3:50pm 8 10 mph 1016.3mb 85f
2:50pm 7 8 mph 1016.9mb 80f
1:50pm 17 24 mph 1018.2mb 81f
12:50pm 9 10 mph 1018.1mb 86f
11:50am 10 14 mph 1018.2mb 85f
10:50am  -  mph 1018.2mb 85f
9:50am 15 16 mph 1018.3mb 83f
8:50am 15 16 mph 1018.3mb 84f
7:50am 14 15 mph 1017.9mb 83f
6:50am 8 13 mph 1017.7mb 82f
5:50am 18 21 mph 1017.5mb 82f
4:50am 20 26 mph 1017.9mb 78f
3:50am 17 21 mph 1017.9mb 82f
2:50am 14 16 mph 1018mb 85f
1:50am 13 14 mph 1018.3mb 85f
12:50am 15 16 mph 1018.9mb 86f
Tue 08/23 11:50pm 14 16 mph 1019mb 85f
10:50pm 15 17 mph 1019.2mb 86f
9:50pm 11 14 mph 1018.9mb 85f
8:50pm 9 11 mph 1018.5mb 85f
7:50pm 13 16 mph 1017.9mb 85f
6:50pm 8 9 mph 1017.8mb 85f
5:50pm 9 10 mph 1018.4mb 84f
4:50pm 17 25 mph 1018.8mb 80f
3:50pm 8 9 mph 1019.4mb 83f
2:50pm 6 8 mph 1019.8mb 85f
1:50pm 8 9 mph 1020.3mb 85f
12:50pm 6
mph
1020.7mb 85f
11:50am 11 14 mph 1021mb 86f
10:50am 10 13 mph 1021mb 85f
9:50am 8 14 mph 1020.8mb 85f
8:50am 9 11 mph 1020.6mb 85f
7:50am 10 13 mph 1020.4mb 85f
6:50am 10 11 mph 1019.7mb 85f
5:50am 9 10 mph 1019.4mb 85f
4:50am 7 8 mph 1019mb 85f
3:50am 8 9 mph 1018.9mb 84f
2:50am 9 11 mph 1019.2mb 84f
1:50am 8 9 mph 1019.8mb 85f
12:50am 7 10 mph 1020.3mb 86f
Mon 08/22 11:50pm 10 13 mph 1020.1mb 86f
10:50pm 7 8 mph 1019.9mb 85f
9:50pm 3 6 mph 1019.9mb 85f
8:50pm 3 5 mph 1019.1mb 85f
7:50pm 3 5 mph 1018.5mb 85f
6:50pm 6 7 mph 1018.6mb 86f
5:50pm 3 6 mph 1018.5mb 86f
4:50pm 3 5 mph 1018.3mb 86f
3:50pm 5 6 mph 1018.5mb 86f
2:50pm  -  mph 1019.1mb 85f
1:50pm 5 11 mph 1019.6mb 85f
12:50pm 7 9 mph 1019.9mb 85f
11:50am  -  6 mph 1019.9mb 85f
10:50am  -  mph 1019.7mb 85f
9:50am 7 9 mph 1019.4mb 85f
8:50am 9 11 mph 1018.9mb 85f
7:50am 9 10 mph 1018.4mb 84f
6:50am 9 10 mph 1017.8mb 84f
5:50am 2 8 mph 1017.5mb 84f
4:50am 7
mph
1017.3mb 84f
3:50am  -  mph 1017.3mb 84f
2:50am  -  mph 1017.7mb 84f
1:50am 7 10 mph 1018mb 84f
12:50am 8
mph
1018.4mb 85f
Sun 08/21 11:50pm 6 7 mph 1018.4mb 84f
10:50pm 6
mph
1018.2mb 85f
9:50pm 5 6 mph 1018mb 85f
8:50pm 6 7 mph 1017.3mb 85f
7:50pm 3 6 mph 1016.9mb 85f
6:50pm 2 3 mph 1016.7mb 85f
5:50pm 3 6 mph 1016.6mb 85f
4:50pm 3 5 mph 1016.6mb 85f
3:50pm 6 7 mph 1016.9mb 85f
2:50pm 6 9 mph 1017.6mb 84f